sensor_id;sensor_type;location;lat;lon;timestamp;temperature;humidity
1948;DHT22;974;52.400;9.818;2023-05-07T00:00:39;10.70;99.90
1948;DHT22;974;52.400;9.818;2023-05-07T00:03:06;10.70;99.90
1948;DHT22;974;52.400;9.818;2023-05-07T00:05:32;10.80;99.90
1948;DHT22;974;52.400;9.818;2023-05-07T00:07:58;10.90;99.90
1948;DHT22;974;52.400;9.818;2023-05-07T00:10:25;10.90;99.90
1948;DHT22;974;52.400;9.818;2023-05-07T00:12:51;10.90;99.90
1948;DHT22;974;52.400;9.818;2023-05-07T00:15:16;10.80;99.90
1948;DHT22;974;52.400;9.818;2023-05-07T00:17:42;10.60;99.90
1948;DHT22;974;52.400;9.818;2023-05-07T00:20:07;10.70;99.90
1948;DHT22;974;52.400;9.818;2023-05-07T00:22:33;10.70;99.90
1948;DHT22;974;52.400;9.818;2023-05-07T00:24:59;10.70;99.90
1948;DHT22;974;52.400;9.818;2023-05-07T00:27:25;10.60;99.90
1948;DHT22;974;52.400;9.818;2023-05-07T00:29:50;10.60;99.90
1948;DHT22;974;52.400;9.818;2023-05-07T00:32:16;10.60;99.90
1948;DHT22;974;52.400;9.818;2023-05-07T00:34:42;10.60;99.90
1948;DHT22;974;52.400;9.818;2023-05-07T00:37:07;10.60;99.90
1948;DHT22;974;52.400;9.818;2023-05-07T00:39:34;10.70;99.90
1948;DHT22;974;52.400;9.818;2023-05-07T00:42:00;10.60;99.90
1948;DHT22;974;52.400;9.818;2023-05-07T00:44:26;10.70;99.90
1948;DHT22;974;52.400;9.818;2023-05-07T00:46:52;10.70;99.90
1948;DHT22;974;52.400;9.818;2023-05-07T00:49:19;10.70;99.90
1948;DHT22;974;52.400;9.818;2023-05-07T00:51:45;10.70;99.90
1948;DHT22;974;52.400;9.818;2023-05-07T00:54:13;10.60;99.90
1948;DHT22;974;52.400;9.818;2023-05-07T00:56:38;10.40;99.90
1948;DHT22;974;52.400;9.818;2023-05-07T00:59:05;10.50;99.90
1948;DHT22;974;52.400;9.818;2023-05-07T01:01:32;10.50;99.90
1948;DHT22;974;52.400;9.818;2023-05-07T01:03:57;10.40;99.90
1948;DHT22;974;52.400;9.818;2023-05-07T01:06:24;10.30;99.90
1948;DHT22;974;52.400;9.818;2023-05-07T01:08:52;10.40;99.90
1948;DHT22;974;52.400;9.818;2023-05-07T01:11:18;10.50;99.90
1948;DHT22;974;52.400;9.818;2023-05-07T01:13:46;10.60;99.90
1948;DHT22;974;52.400;9.818;2023-05-07T01:16:12;10.40;99.90
1948;DHT22;974;52.400;9.818;2023-05-07T01:18:37;10.50;99.90
1948;DHT22;974;52.400;9.818;2023-05-07T01:21:04;10.40;99.90
1948;DHT22;974;52.400;9.818;2023-05-07T01:23:30;10.40;99.90
1948;DHT22;974;52.400;9.818;2023-05-07T01:25:56;10.40;99.90
1948;DHT22;974;52.400;9.818;2023-05-07T01:28:22;10.40;99.90
1948;DHT22;974;52.400;9.818;2023-05-07T01:30:52;10.50;99.90
1948;DHT22;974;52.400;9.818;2023-05-07T01:33:20;10.50;99.90
1948;DHT22;974;52.400;9.818;2023-05-07T01:35:52;10.60;99.90
1948;DHT22;974;52.400;9.818;2023-05-07T01:38:19;10.50;99.90
1948;DHT22;974;52.400;9.818;2023-05-07T01:40:46;10.50;99.90
1948;DHT22;974;52.400;9.818;2023-05-07T01:43:12;10.50;99.90
1948;DHT22;974;52.400;9.818;2023-05-07T01:45:38;10.40;99.90
1948;DHT22;974;52.400;9.818;2023-05-07T01:48:04;10.50;99.90
1948;DHT22;974;52.400;9.818;2023-05-07T01:50:32;10.20;99.90
1948;DHT22;974;52.400;9.818;2023-05-07T01:52:58;10.40;99.90
1948;DHT22;974;52.400;9.818;2023-05-07T01:55:24;10.50;99.90
1948;DHT22;974;52.400;9.818;2023-05-07T01:57:50;10.40;99.90
1948;DHT22;974;52.400;9.818;2023-05-07T02:00:15;10.50;99.90
1948;DHT22;974;52.400;9.818;2023-05-07T02:02:41;10.40;99.90
1948;DHT22;974;52.400;9.818;2023-05-07T02:05:07;10.40;99.90
1948;DHT22;974;52.400;9.818;2023-05-07T02:07:32;10.40;99.90
1948;DHT22;974;52.400;9.818;2023-05-07T02:09:58;10.50;99.90
1948;DHT22;974;52.400;9.818;2023-05-07T02:12:23;10.40;99.90
1948;DHT22;974;52.400;9.818;2023-05-07T02:14:49;10.50;99.90
1948;DHT22;974;52.400;9.818;2023-05-07T02:17:15;10.30;99.90
1948;DHT22;974;52.400;9.818;2023-05-07T02:19:40;10.30;99.90
1948;DHT22;974;52.400;9.818;2023-05-07T02:22:07;10.30;99.90
1948;DHT22;974;52.400;9.818;2023-05-07T02:24:32;10.40;99.90
1948;DHT22;974;52.400;9.818;2023-05-07T02:26:58;10.40;99.90
1948;DHT22;974;52.400;9.818;2023-05-07T02:29:23;10.30;99.90
1948;DHT22;974;52.400;9.818;2023-05-07T02:31:48;10.20;99.90
1948;DHT22;974;52.400;9.818;2023-05-07T02:34:18;10.30;99.90
1948;DHT22;974;52.400;9.818;2023-05-07T02:36:44;10.40;99.90
1948;DHT22;974;52.400;9.818;2023-05-07T02:39:09;10.40;99.90
1948;DHT22;974;52.400;9.818;2023-05-07T02:41:35;10.40;99.90
1948;DHT22;974;52.400;9.818;2023-05-07T02:44:00;10.30;99.90
1948;DHT22;974;52.400;9.818;2023-05-07T02:46:26;10.30;99.90
1948;DHT22;974;52.400;9.818;2023-05-07T02:48:51;10.40;99.90
1948;DHT22;974;52.400;9.818;2023-05-07T02:51:21;10.40;99.90
1948;DHT22;974;52.400;9.818;2023-05-07T02:53:46;10.40;99.90
1948;DHT22;974;52.400;9.818;2023-05-07T02:56:12;10.40;99.90
1948;DHT22;974;52.400;9.818;2023-05-07T02:58:39;10.40;99.90
1948;DHT22;974;52.400;9.818;2023-05-07T03:01:08;10.40;99.90
1948;DHT22;974;52.400;9.818;2023-05-07T03:03:34;10.40;99.90
1948;DHT22;974;52.400;9.818;2023-05-07T03:05:59;10.40;99.90
1948;DHT22;974;52.400;9.818;2023-05-07T03:08:25;10.50;99.90
1948;DHT22;974;52.400;9.818;2023-05-07T03:10:51;10.40;99.90
1948;DHT22;974;52.400;9.818;2023-05-07T03:13:16;10.40;99.90
1948;DHT22;974;52.400;9.818;2023-05-07T03:15:42;10.40;99.90
1948;DHT22;974;52.400;9.818;2023-05-07T03:18:08;10.40;99.90
1948;DHT22;974;52.400;9.818;2023-05-07T03:20:33;10.40;99.90
1948;DHT22;974;52.400;9.818;2023-05-07T03:22:59;10.40;99.90
1948;DHT22;974;52.400;9.818;2023-05-07T03:25:24;10.30;99.90
1948;DHT22;974;52.400;9.818;2023-05-07T03:27:50;10.30;99.90
1948;DHT22;974;52.400;9.818;2023-05-07T03:30:15;10.20;99.90
1948;DHT22;974;52.400;9.818;2023-05-07T03:32:41;10.30;99.90
1948;DHT22;974;52.400;9.818;2023-05-07T03:35:07;10.30;99.90
1948;DHT22;974;52.400;9.818;2023-05-07T03:37:33;10.30;99.90
1948;DHT22;974;52.400;9.818;2023-05-07T03:39:58;10.30;99.90
1948;DHT22;974;52.400;9.818;2023-05-07T03:42:25;10.30;99.90
1948;DHT22;974;52.400;9.818;2023-05-07T03:44:50;10.30;99.90
1948;DHT22;974;52.400;9.818;2023-05-07T03:47:16;10.30;99.90
1948;DHT22;974;52.400;9.818;2023-05-07T03:49:43;10.40;99.90
1948;DHT22;974;52.400;9.818;2023-05-07T03:52:08;10.30;99.90
1948;DHT22;974;52.400;9.818;2023-05-07T03:54:34;10.30;99.90
1948;DHT22;974;52.400;9.818;2023-05-07T03:56:59;10.30;99.90
1948;DHT22;974;52.400;9.818;2023-05-07T03:59:25;10.20;99.90
1948;DHT22;974;52.400;9.818;2023-05-07T04:01:50;10.20;99.90
1948;DHT22;974;52.400;9.818;2023-05-07T04:04:16;10.30;99.90
1948;DHT22;974;52.400;9.818;2023-05-07T04:06:42;10.20;99.90
1948;DHT22;974;52.400;9.818;2023-05-07T04:09:07;10.30;99.90
1948;DHT22;974;52.400;9.818;2023-05-07T04:11:33;10.30;99.90
1948;DHT22;974;52.400;9.818;2023-05-07T04:13:58;10.30;99.90
1948;DHT22;974;52.400;9.818;2023-05-07T04:16:25;10.30;99.90
1948;DHT22;974;52.400;9.818;2023-05-07T04:18:51;10.40;99.90
1948;DHT22;974;52.400;9.818;2023-05-07T04:21:17;10.30;99.90
1948;DHT22;974;52.400;9.818;2023-05-07T04:23:43;10.40;99.90
1948;DHT22;974;52.400;9.818;2023-05-07T04:26:09;10.30;99.90
1948;DHT22;974;52.400;9.818;2023-05-07T04:28:35;10.40;99.90
1948;DHT22;974;52.400;9.818;2023-05-07T04:31:01;10.40;99.90
1948;DHT22;974;52.400;9.818;2023-05-07T04:33:26;10.30;99.90
1948;DHT22;974;52.400;9.818;2023-05-07T04:35:52;10.30;99.90
1948;DHT22;974;52.400;9.818;2023-05-07T04:38:18;10.30;99.90
1948;DHT22;974;52.400;9.818;2023-05-07T04:40:44;10.40;99.90
1948;DHT22;974;52.400;9.818;2023-05-07T04:43:09;10.40;99.90
1948;DHT22;974;52.400;9.818;2023-05-07T04:45:35;10.40;99.90
1948;DHT22;974;52.400;9.818;2023-05-07T04:48:01;10.50;99.90
1948;DHT22;974;52.400;9.818;2023-05-07T04:50:26;10.40;99.90
1948;DHT22;974;52.400;9.818;2023-05-07T04:52:52;10.40;99.90
1948;DHT22;974;52.400;9.818;2023-05-07T04:55:18;10.40;99.90
1948;DHT22;974;52.400;9.818;2023-05-07T04:57:43;10.50;99.90
1948;DHT22;974;52.400;9.818;2023-05-07T05:00:09;10.40;99.90
1948;DHT22;974;52.400;9.818;2023-05-07T05:02:35;10.40;99.90
1948;DHT22;974;52.400;9.818;2023-05-07T05:05:01;10.40;99.90
1948;DHT22;974;52.400;9.818;2023-05-07T05:07:27;10.40;99.90
1948;DHT22;974;52.400;9.818;2023-05-07T05:09:53;10.40;99.90
1948;DHT22;974;52.400;9.818;2023-05-07T05:12:19;10.40;99.90
1948;DHT22;974;52.400;9.818;2023-05-07T05:14:45;10.40;99.90
1948;DHT22;974;52.400;9.818;2023-05-07T05:17:10;10.50;99.90
1948;DHT22;974;52.400;9.818;2023-05-07T05:19:35;10.50;99.90
1948;DHT22;974;52.400;9.818;2023-05-07T05:22:01;10.50;99.90
1948;DHT22;974;52.400;9.818;2023-05-07T05:24:29;10.50;99.90
1948;DHT22;974;52.400;9.818;2023-05-07T05:26:54;10.30;99.90
1948;DHT22;974;52.400;9.818;2023-05-07T05:29:20;10.30;99.90
1948;DHT22;974;52.400;9.818;2023-05-07T05:31:45;10.40;99.90
1948;DHT22;974;52.400;9.818;2023-05-07T05:34:11;10.40;99.90
1948;DHT22;974;52.400;9.818;2023-05-07T05:36:36;10.40;99.90
1948;DHT22;974;52.400;9.818;2023-05-07T05:39:02;10.40;99.90
1948;DHT22;974;52.400;9.818;2023-05-07T05:41:27;10.30;99.90
1948;DHT22;974;52.400;9.818;2023-05-07T05:43:53;10.40;99.90
1948;DHT22;974;52.400;9.818;2023-05-07T05:46:19;10.50;99.90
1948;DHT22;974;52.400;9.818;2023-05-07T05:48:44;10.50;99.90
1948;DHT22;974;52.400;9.818;2023-05-07T05:51:11;10.60;99.90
1948;DHT22;974;52.400;9.818;2023-05-07T05:53:36;10.70;99.90
1948;DHT22;974;52.400;9.818;2023-05-07T05:56:02;10.60;99.90
1948;DHT22;974;52.400;9.818;2023-05-07T05:58:28;10.60;99.90
1948;DHT22;974;52.400;9.818;2023-05-07T06:00:53;10.60;99.90
1948;DHT22;974;52.400;9.818;2023-05-07T06:03:19;10.70;99.90
1948;DHT22;974;52.400;9.818;2023-05-07T06:05:44;10.80;99.90
1948;DHT22;974;52.400;9.818;2023-05-07T06:08:10;10.80;99.90
1948;DHT22;974;52.400;9.818;2023-05-07T06:10:37;10.90;99.90
1948;DHT22;974;52.400;9.818;2023-05-07T06:13:02;10.90;99.90
1948;DHT22;974;52.400;9.818;2023-05-07T06:15:27;10.90;99.90
1948;DHT22;974;52.400;9.818;2023-05-07T06:17:53;10.90;99.90
1948;DHT22;974;52.400;9.818;2023-05-07T06:20:21;10.90;99.90
1948;DHT22;974;52.400;9.818;2023-05-07T06:22:46;11.00;99.90
1948;DHT22;974;52.400;9.818;2023-05-07T06:25:11;11.00;99.90
1948;DHT22;974;52.400;9.818;2023-05-07T06:27:37;11.00;99.90
1948;DHT22;974;52.400;9.818;2023-05-07T06:30:05;11.10;99.90
1948;DHT22;974;52.400;9.818;2023-05-07T06:32:31;11.10;99.90
1948;DHT22;974;52.400;9.818;2023-05-07T06:34:56;11.00;99.90
1948;DHT22;974;52.400;9.818;2023-05-07T06:37:22;11.10;99.90
1948;DHT22;974;52.400;9.818;2023-05-07T06:39:47;11.10;99.90
1948;DHT22;974;52.400;9.818;2023-05-07T06:42:13;11.10;99.90
1948;DHT22;974;52.400;9.818;2023-05-07T06:44:38;11.10;99.90
1948;DHT22;974;52.400;9.818;2023-05-07T06:47:04;11.20;99.90
1948;DHT22;974;52.400;9.818;2023-05-07T06:49:31;11.20;99.90
1948;DHT22;974;52.400;9.818;2023-05-07T06:51:56;11.20;99.90
1948;DHT22;974;52.400;9.818;2023-05-07T06:54:22;11.30;99.90
1948;DHT22;974;52.400;9.818;2023-05-07T06:56:48;11.30;99.90
1948;DHT22;974;52.400;9.818;2023-05-07T06:59:13;11.40;99.90
1948;DHT22;974;52.400;9.818;2023-05-07T07:01:39;11.30;99.90
1948;DHT22;974;52.400;9.818;2023-05-07T07:04:04;11.40;99.90
1948;DHT22;974;52.400;9.818;2023-05-07T07:06:31;11.40;99.90
1948;DHT22;974;52.400;9.818;2023-05-07T07:08:58;11.40;99.90
1948;DHT22;974;52.400;9.818;2023-05-07T07:11:23;11.50;99.90
1948;DHT22;974;52.400;9.818;2023-05-07T07:13:49;11.50;99.90
1948;DHT22;974;52.400;9.818;2023-05-07T07:16:14;11.50;99.90
1948;DHT22;974;52.400;9.818;2023-05-07T07:18:40;11.40;99.90
1948;DHT22;974;52.400;9.818;2023-05-07T07:21:05;11.30;99.90
1948;DHT22;974;52.400;9.818;2023-05-07T07:23:31;11.40;99.90
1948;DHT22;974;52.400;9.818;2023-05-07T07:25:56;11.40;99.90
1948;DHT22;974;52.400;9.818;2023-05-07T07:28:22;11.50;99.90
1948;DHT22;974;52.400;9.818;2023-05-07T07:30:48;11.40;99.90
1948;DHT22;974;52.400;9.818;2023-05-07T07:33:13;11.50;99.90
1948;DHT22;974;52.400;9.818;2023-05-07T07:35:39;11.70;99.90
1948;DHT22;974;52.400;9.818;2023-05-07T07:38:05;11.70;99.90
1948;DHT22;974;52.400;9.818;2023-05-07T07:40:30;11.80;99.90
1948;DHT22;974;52.400;9.818;2023-05-07T07:42:56;11.90;99.90
1948;DHT22;974;52.400;9.818;2023-05-07T07:45:22;11.90;99.90
1948;DHT22;974;52.400;9.818;2023-05-07T07:47:47;12.00;99.90
1948;DHT22;974;52.400;9.818;2023-05-07T07:50:13;12.10;99.90
1948;DHT22;974;52.400;9.818;2023-05-07T07:52:38;12.10;99.90
1948;DHT22;974;52.400;9.818;2023-05-07T07:55:04;12.20;99.90
1948;DHT22;974;52.400;9.818;2023-05-07T07:57:31;12.20;99.90
1948;DHT22;974;52.400;9.818;2023-05-07T07:59:57;12.20;99.90
1948;DHT22;974;52.400;9.818;2023-05-07T08:02:22;12.30;99.90
1948;DHT22;974;52.400;9.818;2023-05-07T08:04:48;12.40;99.90
1948;DHT22;974;52.400;9.818;2023-05-07T08:07:13;12.50;99.90
1948;DHT22;974;52.400;9.818;2023-05-07T08:09:39;12.50;99.90
1948;DHT22;974;52.400;9.818;2023-05-07T08:12:06;12.70;99.90
1948;DHT22;974;52.400;9.818;2023-05-07T08:14:32;12.70;99.90
1948;DHT22;974;52.400;9.818;2023-05-07T08:16:57;12.60;99.90
1948;DHT22;974;52.400;9.818;2023-05-07T08:19:23;12.70;99.90
1948;DHT22;974;52.400;9.818;2023-05-07T08:21:48;12.70;99.90
1948;DHT22;974;52.400;9.818;2023-05-07T08:24:14;12.70;99.90
1948;DHT22;974;52.400;9.818;2023-05-07T08:26:40;12.70;99.90
1948;DHT22;974;52.400;9.818;2023-05-07T08:29:06;12.80;99.90
1948;DHT22;974;52.400;9.818;2023-05-07T08:31:32;12.90;99.90
1948;DHT22;974;52.400;9.818;2023-05-07T08:33:58;12.80;99.90
1948;DHT22;974;52.400;9.818;2023-05-07T08:36:24;12.90;99.90
1948;DHT22;974;52.400;9.818;2023-05-07T08:38:51;13.00;99.90
1948;DHT22;974;52.400;9.818;2023-05-07T08:41:17;13.10;99.90
1948;DHT22;974;52.400;9.818;2023-05-07T08:43:47;13.20;99.90
1948;DHT22;974;52.400;9.818;2023-05-07T08:46:17;13.40;99.90
1948;DHT22;974;52.400;9.818;2023-05-07T08:48:44;13.60;99.90
1948;DHT22;974;52.400;9.818;2023-05-07T08:51:13;13.50;99.90
1948;DHT22;974;52.400;9.818;2023-05-07T08:53:41;13.40;99.90
1948;DHT22;974;52.400;9.818;2023-05-07T08:56:08;13.30;99.90
1948;DHT22;974;52.400;9.818;2023-05-07T08:58:34;13.10;99.90
1948;DHT22;974;52.400;9.818;2023-05-07T09:01:07;13.20;99.90
1948;DHT22;974;52.400;9.818;2023-05-07T09:03:33;13.20;99.90
1948;DHT22;974;52.400;9.818;2023-05-07T09:05:59;13.20;99.90
1948;DHT22;974;52.400;9.818;2023-05-07T09:08:26;13.10;99.90
1948;DHT22;974;52.400;9.818;2023-05-07T09:10:52;13.20;99.90
1948;DHT22;974;52.400;9.818;2023-05-07T09:13:18;13.10;99.90
1948;DHT22;974;52.400;9.818;2023-05-07T09:15:44;13.10;99.90
1948;DHT22;974;52.400;9.818;2023-05-07T09:18:10;13.20;99.90
1948;DHT22;974;52.400;9.818;2023-05-07T09:20:40;13.20;99.90
1948;DHT22;974;52.400;9.818;2023-05-07T09:23:07;13.30;99.90
1948;DHT22;974;52.400;9.818;2023-05-07T09:25:35;13.30;99.90
1948;DHT22;974;52.400;9.818;2023-05-07T09:28:03;13.40;99.90
1948;DHT22;974;52.400;9.818;2023-05-07T09:30:33;13.40;99.90
1948;DHT22;974;52.400;9.818;2023-05-07T09:33:01;13.30;99.90
1948;DHT22;974;52.400;9.818;2023-05-07T09:35:27;13.30;99.90
1948;DHT22;974;52.400;9.818;2023-05-07T09:37:53;13.20;99.90
1948;DHT22;974;52.400;9.818;2023-05-07T09:40:24;13.20;99.90
1948;DHT22;974;52.400;9.818;2023-05-07T09:42:50;13.30;99.90
1948;DHT22;974;52.400;9.818;2023-05-07T09:45:27;13.20;99.90
1948;DHT22;974;52.400;9.818;2023-05-07T09:47:57;13.40;99.90
1948;DHT22;974;52.400;9.818;2023-05-07T09:50:28;13.30;99.90
1948;DHT22;974;52.400;9.818;2023-05-07T09:52:55;13.50;99.90
1948;DHT22;974;52.400;9.818;2023-05-07T09:55:21;13.60;99.90
1948;DHT22;974;52.400;9.818;2023-05-07T09:57:57;13.80;99.90
1948;DHT22;974;52.400;9.818;2023-05-07T10:00:22;13.90;99.90
1948;DHT22;974;52.400;9.818;2023-05-07T10:02:50;14.00;99.90
1948;DHT22;974;52.400;9.818;2023-05-07T10:05:18;14.00;99.90
1948;DHT22;974;52.400;9.818;2023-05-07T10:07:44;13.90;99.90
1948;DHT22;974;52.400;9.818;2023-05-07T10:10:10;13.70;99.90
1948;DHT22;974;52.400;9.818;2023-05-07T10:12:36;13.60;99.90
1948;DHT22;974;52.400;9.818;2023-05-07T10:15:08;13.70;99.90
1948;DHT22;974;52.400;9.818;2023-05-07T10:17:36;13.80;99.90
1948;DHT22;974;52.400;9.818;2023-05-07T10:20:02;13.80;99.90
1948;DHT22;974;52.400;9.818;2023-05-07T10:22:41;13.90;99.90
1948;DHT22;974;52.400;9.818;2023-05-07T10:25:14;13.90;99.90
1948;DHT22;974;52.400;9.818;2023-05-07T10:27:43;13.90;99.90
1948;DHT22;974;52.400;9.818;2023-05-07T10:32:56;14.10;99.90
1948;DHT22;974;52.400;9.818;2023-05-07T10:35:25;14.20;99.90
1948;DHT22;974;52.400;9.818;2023-05-07T10:37:51;14.00;99.90
1948;DHT22;974;52.400;9.818;2023-05-07T10:40:17;13.90;99.90
1948;DHT22;974;52.400;9.818;2023-05-07T10:42:53;14.10;99.90
1948;DHT22;974;52.400;9.818;2023-05-07T10:45:20;14.30;99.90
1948;DHT22;974;52.400;9.818;2023-05-07T10:50:40;14.50;99.90
1948;DHT22;974;52.400;9.818;2023-05-07T10:53:20;14.60;99.90
1948;DHT22;974;52.400;9.818;2023-05-07T10:55:47;14.80;99.90
1948;DHT22;974;52.400;9.818;2023-05-07T10:58:27;14.80;99.90
1948;DHT22;974;52.400;9.818;2023-05-07T11:00:57;14.90;99.90
1948;DHT22;974;52.400;9.818;2023-05-07T11:03:23;15.00;99.90
1948;DHT22;974;52.400;9.818;2023-05-07T11:06:14;15.00;99.90
1948;DHT22;974;52.400;9.818;2023-05-07T11:08:56;15.30;99.90
1948;DHT22;974;52.400;9.818;2023-05-07T11:11:44;15.70;99.90
1948;DHT22;974;52.400;9.818;2023-05-07T11:14:10;15.70;99.90
1948;DHT22;974;52.400;9.818;2023-05-07T11:16:36;16.20;99.90
1948;DHT22;974;52.400;9.818;2023-05-07T11:19:03;17.50;99.90
1948;DHT22;974;52.400;9.818;2023-05-07T11:21:40;18.90;99.90
1948;DHT22;974;52.400;9.818;2023-05-07T11:24:08;19.20;99.90
1948;DHT22;974;52.400;9.818;2023-05-07T11:27:01;18.70;99.90
1948;DHT22;974;52.400;9.818;2023-05-07T11:29:27;19.70;99.90
1948;DHT22;974;52.400;9.818;2023-05-07T11:31:54;20.10;99.90
1948;DHT22;974;52.400;9.818;2023-05-07T11:34:25;20.40;99.90
1948;DHT22;974;52.400;9.818;2023-05-07T11:36:52;20.30;99.90
1948;DHT22;974;52.400;9.818;2023-05-07T11:39:31;21.20;99.90
1948;DHT22;974;52.400;9.818;2023-05-07T11:42:02;21.00;99.90
1948;DHT22;974;52.400;9.818;2023-05-07T11:44:44;20.50;99.90
1948;DHT22;974;52.400;9.818;2023-05-07T11:47:22;20.90;99.90
1948;DHT22;974;52.400;9.818;2023-05-07T11:49:48;21.10;99.90
1948;DHT22;974;52.400;9.818;2023-05-07T11:52:19;21.10;99.90
1948;DHT22;974;52.400;9.818;2023-05-07T11:54:55;19.90;99.90
1948;DHT22;974;52.400;9.818;2023-05-07T11:57:21;19.20;99.90
1948;DHT22;974;52.400;9.818;2023-05-07T11:59:57;20.20;99.90
1948;DHT22;974;52.400;9.818;2023-05-07T12:02:23;20.50;99.90
1948;DHT22;974;52.400;9.818;2023-05-07T12:04:50;21.80;99.90
1948;DHT22;974;52.400;9.818;2023-05-07T12:07:17;23.30;99.90
1948;DHT22;974;52.400;9.818;2023-05-07T12:09:44;24.00;99.90
1948;DHT22;974;52.400;9.818;2023-05-07T12:12:10;24.50;99.60
1948;DHT22;974;52.400;9.818;2023-05-07T12:14:40;23.50;98.50
1948;DHT22;974;52.400;9.818;2023-05-07T12:17:07;22.30;97.90
1948;DHT22;974;52.400;9.818;2023-05-07T12:19:34;21.40;99.00
1948;DHT22;974;52.400;9.818;2023-05-07T12:22:01;20.70;98.00
1948;DHT22;974;52.400;9.818;2023-05-07T12:24:26;20.80;99.50
1948;DHT22;974;52.400;9.818;2023-05-07T12:26:53;20.80;99.60
1948;DHT22;974;52.400;9.818;2023-05-07T12:29:22;20.50;99.60
1948;DHT22;974;52.400;9.818;2023-05-07T12:31:50;19.70;99.00
1948;DHT22;974;52.400;9.818;2023-05-07T12:34:16;19.40;99.90
1948;DHT22;974;52.400;9.818;2023-05-07T12:36:41;19.00;99.70
1948;DHT22;974;52.400;9.818;2023-05-07T12:39:11;18.30;99.70
1948;DHT22;974;52.400;9.818;2023-05-07T12:44:22;17.40;99.90
1948;DHT22;974;52.400;9.818;2023-05-07T12:46:48;17.00;99.90
1948;DHT22;974;52.400;9.818;2023-05-07T12:49:15;16.90;99.90
1948;DHT22;974;52.400;9.818;2023-05-07T12:51:41;16.80;99.90
1948;DHT22;974;52.400;9.818;2023-05-07T12:54:07;16.90;99.90
1948;DHT22;974;52.400;9.818;2023-05-07T12:56:35;16.70;99.90
1948;DHT22;974;52.400;9.818;2023-05-07T12:59:01;16.50;99.90
1948;DHT22;974;52.400;9.818;2023-05-07T13:01:30;16.60;99.90
1948;DHT22;974;52.400;9.818;2023-05-07T13:04:00;16.50;99.90
1948;DHT22;974;52.400;9.818;2023-05-07T13:06:27;16.70;99.90
1948;DHT22;974;52.400;9.818;2023-05-07T13:08:53;17.00;99.90
1948;DHT22;974;52.400;9.818;2023-05-07T13:11:18;17.20;99.90
1948;DHT22;974;52.400;9.818;2023-05-07T13:13:43;17.30;99.90
1948;DHT22;974;52.400;9.818;2023-05-07T13:16:11;16.90;99.90
1948;DHT22;974;52.400;9.818;2023-05-07T13:18:55;17.30;99.90
1948;DHT22;974;52.400;9.818;2023-05-07T13:21:20;17.30;99.90
1948;DHT22;974;52.400;9.818;2023-05-07T13:23:46;17.60;99.90
1948;DHT22;974;52.400;9.818;2023-05-07T13:26:11;17.50;99.90
1948;DHT22;974;52.400;9.818;2023-05-07T13:28:37;17.60;99.90
1948;DHT22;974;52.400;9.818;2023-05-07T13:31:02;17.60;99.90
1948;DHT22;974;52.400;9.818;2023-05-07T13:33:28;17.40;99.90
1948;DHT22;974;52.400;9.818;2023-05-07T13:35:54;17.50;99.90
1948;DHT22;974;52.400;9.818;2023-05-07T13:38:19;17.50;99.90
1948;DHT22;974;52.400;9.818;2023-05-07T13:40:45;17.30;99.90
1948;DHT22;974;52.400;9.818;2023-05-07T13:43:10;17.10;99.90
1948;DHT22;974;52.400;9.818;2023-05-07T13:45:36;16.80;99.90
1948;DHT22;974;52.400;9.818;2023-05-07T13:48:01;17.00;99.90
1948;DHT22;974;52.400;9.818;2023-05-07T13:50:27;17.00;99.90
1948;DHT22;974;52.400;9.818;2023-05-07T13:52:54;17.00;99.90
1948;DHT22;974;52.400;9.818;2023-05-07T13:55:21;17.00;99.90
1948;DHT22;974;52.400;9.818;2023-05-07T13:57:47;16.80;99.90
1948;DHT22;974;52.400;9.818;2023-05-07T14:00:14;16.80;99.90
1948;DHT22;974;52.400;9.818;2023-05-07T14:02:40;16.90;99.90
1948;DHT22;974;52.400;9.818;2023-05-07T14:05:06;17.00;99.90
1948;DHT22;974;52.400;9.818;2023-05-07T14:07:32;17.20;99.90
1948;DHT22;974;52.400;9.818;2023-05-07T14:09:58;17.40;99.90
1948;DHT22;974;52.400;9.818;2023-05-07T14:12:24;17.30;99.90
1948;DHT22;974;52.400;9.818;2023-05-07T14:14:49;17.40;99.90
1948;DHT22;974;52.400;9.818;2023-05-07T14:17:16;17.60;99.90
1948;DHT22;974;52.400;9.818;2023-05-07T14:19:42;17.90;99.90
1948;DHT22;974;52.400;9.818;2023-05-07T14:22:08;17.70;99.90
1948;DHT22;974;52.400;9.818;2023-05-07T14:24:33;17.90;99.90
1948;DHT22;974;52.400;9.818;2023-05-07T14:26:59;17.90;99.90
1948;DHT22;974;52.400;9.818;2023-05-07T14:29:25;17.90;99.90
1948;DHT22;974;52.400;9.818;2023-05-07T14:31:50;18.00;99.90
1948;DHT22;974;52.400;9.818;2023-05-07T14:34:15;17.60;99.90
1948;DHT22;974;52.400;9.818;2023-05-07T14:36:41;17.70;99.90
1948;DHT22;974;52.400;9.818;2023-05-07T14:39:06;18.00;99.90
1948;DHT22;974;52.400;9.818;2023-05-07T14:41:32;19.30;99.90
1948;DHT22;974;52.400;9.818;2023-05-07T14:43:58;19.40;99.90
1948;DHT22;974;52.400;9.818;2023-05-07T14:46:24;19.50;99.90
1948;DHT22;974;52.400;9.818;2023-05-07T14:48:50;18.80;99.90
1948;DHT22;974;52.400;9.818;2023-05-07T14:51:16;18.00;99.90
1948;DHT22;974;52.400;9.818;2023-05-07T14:53:42;17.50;99.90
1948;DHT22;974;52.400;9.818;2023-05-07T14:56:07;17.40;99.90
1948;DHT22;974;52.400;9.818;2023-05-07T14:58:34;17.40;99.90
1948;DHT22;974;52.400;9.818;2023-05-07T15:01:00;17.30;99.90
1948;DHT22;974;52.400;9.818;2023-05-07T15:03:27;17.30;99.90
1948;DHT22;974;52.400;9.818;2023-05-07T15:05:53;17.00;99.90
1948;DHT22;974;52.400;9.818;2023-05-07T15:08:18;17.00;99.90
1948;DHT22;974;52.400;9.818;2023-05-07T15:10:45;16.90;99.90
1948;DHT22;974;52.400;9.818;2023-05-07T15:13:11;16.70;99.90
1948;DHT22;974;52.400;9.818;2023-05-07T15:15:39;16.70;99.90
1948;DHT22;974;52.400;9.818;2023-05-07T15:18:04;16.60;99.90
1948;DHT22;974;52.400;9.818;2023-05-07T15:20:30;16.50;99.90
1948;DHT22;974;52.400;9.818;2023-05-07T15:22:56;16.50;99.90
1948;DHT22;974;52.400;9.818;2023-05-07T15:25:22;16.50;99.90
1948;DHT22;974;52.400;9.818;2023-05-07T15:27:48;16.40;99.90
1948;DHT22;974;52.400;9.818;2023-05-07T15:30:14;16.50;99.90
1948;DHT22;974;52.400;9.818;2023-05-07T15:32:43;16.50;99.90
1948;DHT22;974;52.400;9.818;2023-05-07T15:35:09;16.60;99.90
1948;DHT22;974;52.400;9.818;2023-05-07T15:37:34;16.70;99.90
1948;DHT22;974;52.400;9.818;2023-05-07T15:40:00;16.80;99.90
1948;DHT22;974;52.400;9.818;2023-05-07T15:42:28;16.70;99.90
1948;DHT22;974;52.400;9.818;2023-05-07T15:44:53;16.60;99.90
1948;DHT22;974;52.400;9.818;2023-05-07T15:47:19;16.50;99.90
1948;DHT22;974;52.400;9.818;2023-05-07T15:49:45;16.60;99.90
1948;DHT22;974;52.400;9.818;2023-05-07T15:52:11;16.70;99.90
1948;DHT22;974;52.400;9.818;2023-05-07T15:54:39;16.80;99.90
1948;DHT22;974;52.400;9.818;2023-05-07T15:57:05;17.00;99.90
1948;DHT22;974;52.400;9.818;2023-05-07T15:59:32;16.90;99.90
1948;DHT22;974;52.400;9.818;2023-05-07T16:01:58;16.60;99.90
1948;DHT22;974;52.400;9.818;2023-05-07T16:04:23;16.50;99.90
1948;DHT22;974;52.400;9.818;2023-05-07T16:06:49;16.50;99.90
1948;DHT22;974;52.400;9.818;2023-05-07T16:09:15;16.60;99.90
1948;DHT22;974;52.400;9.818;2023-05-07T16:11:42;16.60;99.90
1948;DHT22;974;52.400;9.818;2023-05-07T16:14:07;16.60;99.90
1948;DHT22;974;52.400;9.818;2023-05-07T16:16:35;16.40;99.90
1948;DHT22;974;52.400;9.818;2023-05-07T16:19:02;16.40;99.90
1948;DHT22;974;52.400;9.818;2023-05-07T16:21:27;16.40;99.90